Grant, NE

9:12 AM MDT on September 28, 2016 (GMT -0600)
Sisco Fertilizer | | Change Station

Elev 3415 ft 40.84 °N, 101.40 °W | Updated 4 seconds ago

Clear
Clear
62.6 °F
Feels Like 62.6 °F
N
0.0
Wind Variable Wind from NNE
Gusts 4.0 mph

Today
High -- | Low -- °F
--% Chance of Precip.
Yesterday
High -- | Low -- °F
Precip. -- in
Pressure 30.25 in
Visibility 10.0 miles
Clouds Clear
Dew Point 45 °F
Humidity 53%
Rainfall 0.00 in
Snow Depth Not available.
6:40 AM 6:32 PM
Waning Crescent, 5% visible
METAR KOGA 281455Z AUTO 02006KT 10SM CLR 19/06 A3025 RMK AO2 T01860060
Pressure 30.25 in
Visibility 10.0 miles
Clouds Clear
Dew Point 45 °F
Humidity 53%
Rainfall 0.00 in
Snow Depth Not available.
6:40 AM 6:32 PM
Waning Crescent, 5% visible
METAR KOGA 281455Z AUTO 02006KT 10SM CLR 19/06 A3025 RMK AO2 T01860060

10-Day Weather Forecast

Almanac

Astronomy

Sep. 28, 2016 Rise Set
Actual Time
Civil Twilight
Nautical Twilight
Astronomical Twilight
Moon
Length of Visible Light
Length of Day
Tomorrow will be .
, % of the Moon is Illuminated

Today's Extremes

State Highs State Lows

Community

WunderPhotos

Upload Photos

1,942,280 photos uploaded!

WunderBlog® & News

Nearby

Air Quality

  Air Quality AQ Index Pollutant
Not available.

Snow Depth

Station Depth Elevation

Earthquake Activity

City Distance Mag. Time & Date
Minimum magnitude displayed is 2.5.

Coastal Water Temperatures

Place Temperature

Stations

Nearby Weather Stations

Station Location Temp. Windchill Dew Point Humidity Wind Precip. Elev Updated Type
                   

Watches & Warnings

There are currently no watches in effect.